Time;durP1;ratioP1;P1;durP2;ratioP2;P2;SDS_P1;SDS_P2;PMS_P1;PMS_P2;Temp;Humidity;BMP_temperature;BMP_pressure;BME280_temperature;BME280_humidity;BME280_pressure;Samples;Min_cycle;Max_cycle;Signal;HPM_P1;HPM_P2
2023/03/20 00:01:17;;;;;;;4.57;3.60;;;;;;;7.66;74.79;98625.06;5032466;28;20656;-64
2023/03/20 00:03:42;;;;;;;3.30;2.95;;;;;;;7.75;74.35;98616.81;5030251;28;20675;-64
2023/03/20 00:06:16;;;;;;;3.70;3.40;;;;;;;7.72;74.51;98613.59;5030180;28;20270;-64
2023/03/20 00:08:44;;;;;;;3.60;3.08;;;;;;;7.76;74.10;98592.72;5030326;28;20731;-64
2023/03/20 00:11:35;;;;;;;3.97;2.70;;;;;;;7.93;73.77;98608.09;5030085;28;20206;-64
2023/03/20 00:14:06;;;;;;;3.17;2.88;;;;;;;8.11;73.74;98625.13;5023120;28;20202;-63
2023/03/20 00:16:37;;;;;;;4.10;3.05;;;;;;;8.17;73.52;98624.81;5030065;28;20659;-63
2023/03/20 00:19:05;;;;;;;3.30;2.95;;;;;;;8.27;72.89;98623.38;5030134;28;20179;-64
2023/03/20 00:21:31;;;;;;;4.10;3.35;;;;;;;7.98;72.77;98567.44;5030003;28;20226;-63
2023/03/20 00:23:57;;;;;;;3.65;3.03;;;;;;;8.35;72.40;98621.22;5030077;28;20264;-63
2023/03/20 00:26:27;;;;;;;4.65;2.60;;;;;;;7.87;72.63;98549.19;5029981;28;20174;-64
2023/03/20 00:28:52;;;;;;;3.47;2.60;;;;;;;8.22;73.14;98627.16;5029896;28;20197;-63
2023/03/20 00:31:27;;;;;;;3.17;2.88;;;;;;;7.58;74.16;98549.94;5029834;28;20198;-64
2023/03/20 00:33:55;;;;;;;2.70;2.50;;;;;;;7.36;74.46;98513.44;5029876;28;20221;-63
2023/03/20 00:36:20;;;;;;;2.97;2.78;;;;;;;7.32;75.16;98524.78;5029826;28;20178;-64
2023/03/20 00:38:46;;;;;;;2.92;2.78;;;;;;;7.41;75.85;98544.06;5029787;28;20616;-63
2023/03/20 00:41:20;;;;;;;3.08;2.80;;;;;;;7.84;75.77;98605.19;5030872;28;20201;-64
2023/03/20 00:43:48;;;;;;;3.35;3.05;;;;;;;7.93;74.92;98595.22;5032278;28;20643;-64
2023/03/20 00:46:14;;;;;;;3.42;2.83;;;;;;;7.98;74.89;98597.56;5032090;28;20174;-64
2023/03/20 00:48:42;;;;;;;3.15;2.90;;;;;;;7.31;75.48;98510.28;5032068;28;20710;-64
2023/03/20 00:51:08;;;;;;;5.13;3.33;;;;;;;7.06;76.83;98493.66;5031975;28;20571;-63
2023/03/20 00:53:34;;;;;;;6.55;3.50;;;;;;;7.48;78.03;98582.28;5049660;28;20663;-64
2023/03/20 00:55:59;;;;;;;3.97;3.58;;;;;;;7.43;78.51;98581.69;5049397;28;20216;-63
2023/03/20 00:58:25;;;;;;;4.88;3.55;;;;;;;7.57;77.93;98575.81;5049521;28;20185;-64
2023/03/20 01:00:51;;;;;;;3.90;3.60;;;;;;;7.80;77.44;98598.56;5049538;28;20173;-64
2023/03/20 01:03:20;;;;;;;4.90;4.07;;;;;;;7.79;76.61;98555.66;5049497;28;20232;-64
2023/03/20 01:05:46;;;;;;;4.60;4.15;;;;;;;7.97;76.25;98570.09;5049452;28;20718;-64
2023/03/20 01:08:13;;;;;;;3.40;3.00;;;;;;;7.40;76.62;98490.94;5049426;28;20683;-64
2023/03/20 01:10:40;;;;;;;4.15;3.50;;;;;;;8.03;76.84;98585.25;5049358;28;20197;-64
2023/03/20 01:13:12;;;;;;;4.55;3.28;;;;;;;7.63;76.56;98509.34;5049374;28;20197;-64
2023/03/20 01:15:37;;;;;;;4.82;3.88;;;;;;;7.86;75.66;98534.66;5049560;28;20285;-64
2023/03/20 01:18:03;;;;;;;3.92;3.63;;;;;;;7.97;75.36;98558.06;5049339;28;20190;-64
2023/03/20 01:20:29;;;;;;;4.30;3.80;;;;;;;7.82;75.97;98548.59;5052931;28;20209;-64
2023/03/20 01:22:55;;;;;;;4.03;3.47;;;;;;;7.24;77.41;98496.09;5053217;28;20189;-64
2023/03/20 01:25:21;;;;;;;4.05;3.67;;;;;;;7.76;77.25;98566.97;5038189;28;20694;-64
2023/03/20 01:27:52;;;;;;;5.47;4.30;;;;;;;7.94;77.23;98590.91;5035608;28;20730;-64
2023/03/20 01:30:26;;;;;;;4.43;4.03;;;;;;;8.00;77.25;98595.72;5052864;28;20208;-64
2023/03/20 01:32:52;;;;;;;7.03;4.18;;;;;;;7.82;77.49;98560.66;5052864;28;20284;-64
2023/03/20 01:35:21;;;;;;;6.93;4.72;;;;;;;7.81;78.16;98564.16;5053011;28;20221;-64
2023/03/20 01:37:47;;;;;;;4.88;4.40;;;;;;;7.44;78.04;98508.69;5052934;28;20231;-64
2023/03/20 01:40:42;;;;;;;6.15;4.88;;;;;;;7.67;77.91;98539.16;5052946;28;20193;-64
2023/03/20 01:43:19;;;;;;;4.30;3.90;;;;;;;7.17;78.56;98483.63;5052625;28;20363;-63
2023/03/20 01:46:11;;;;;;;4.10;3.70;;;;;;;7.59;78.99;98581.69;5052926;28;20592;-64
2023/03/20 01:48:51;;;;;;;4.65;3.78;;;;;;;7.59;79.39;98579.97;5032799;28;20194;-64
2023/03/20 01:51:23;;;;;;;4.28;3.88;;;;;;;7.62;79.11;98579.78;5032658;28;20202;-64
2023/03/20 01:54:14;;;;;;;5.50;3.92;;;;;;;7.57;78.97;98568.88;5032803;28;20194;-64
2023/03/20 01:56:53;;;;;;;6.15;4.80;;;;;;;7.35;79.19;98519.47;4993081;28;20222;-63
2023/03/20 01:59:27;;;;;;;5.38;4.88;;;;;;;7.11;78.77;98469.31;4993272;28;20187;-64
2023/03/20 02:01:53;;;;;;;3.47;3.17;;;;;;;7.19;78.28;98477.47;4993308;28;20215;-63
2023/03/20 02:04:25;;;;;;;4.22;3.20;;;;;;;7.26;78.56;98519.97;4993178;28;20220;-64
2023/03/20 02:06:51;;;;;;;4.60;4.20;;;;;;;7.30;78.52;98508.63;4993116;28;20184;-63
2023/03/20 02:09:16;;;;;;;4.57;3.85;;;;;;;7.66;78.43;98565.84;4993168;28;20203;-64
2023/03/20 02:11:45;;;;;;;4.63;4.20;;;;;;;7.31;78.01;98487.13;4992931;28;20335;-64
2023/03/20 02:14:12;;;;;;;7.35;4.78;;;;;;;7.32;79.03;98508.50;4993249;28;20206;-64
2023/03/20 02:16:37;;;;;;;6.80;4.97;;;;;;;7.31;79.84;98524.88;4992983;28;20183;-64
2023/03/20 02:19:06;;;;;;;5.95;3.97;;;;;;;6.98;80.41;98465.75;4992897;28;20195;-64
2023/03/20 02:22:00;;;;;;;5.32;4.60;;;;;;;6.73;82.54;98462.81;4992838;28;20196;-63
2023/03/20 02:25:01;;;;;;;6.70;4.00;;;;;;;7.11;82.05;98504.53;4992928;28;20175;-64
2023/03/20 02:27:38;;;;;;;6.22;4.35;;;;;;;7.46;82.01;98568.63;4992840;28;20417;-64
2023/03/20 02:30:39;;;;;;;4.63;4.10;;;;;;;7.33;82.61;98567.63;4992594;28;20199;-64
2023/03/20 02:33:23;;;;;;;4.82;4.22;;;;;;;7.52;81.90;98563.16;5003656;28;20206;-64
2023/03/20 02:35:55;;;;;;;5.80;5.07;;;;;;;7.56;81.37;98564.66;5034343;28;20182;-64
2023/03/20 02:38:42;;;;;;;6.78;4.70;;;;;;;7.56;81.67;98564.66;5034595;28;20185;-64
2023/03/20 02:41:29;;;;;;;9.40;5.70;;;;;;;7.32;83.55;98558.25;5034308;28;20198;-64
2023/03/20 02:44:13;;;;;;;8.20;5.35;;;;;;;7.52;83.27;98568.31;5034235;28;20633;-64
2023/03/20 02:46:56;;;;;;;8.73;6.38;;;;;;;7.51;82.57;98546.03;5034162;28;20178;-63
2023/03/20 02:49:31;;;;;;;9.25;6.72;;;;;;;7.70;82.06;98569.88;5034145;28;20163;-64
2023/03/20 02:52:08;;;;;;;8.15;6.47;;;;;;;7.25;82.53;98487.44;5034035;28;20220;-64
2023/03/20 02:54:51;;;;;;;9.93;7.72;;;;;;;7.51;83.93;98563.25;5034021;28;20566;-64
2023/03/20 02:57:26;;;;;;;10.75;7.97;;;;;;;7.50;84.68;98554.69;5033983;28;20167;-64
2023/03/20 03:00:32;;;;;;;11.00;7.60;;;;;;;7.57;84.70;98556.00;5033953;28;20166;-64
2023/03/20 03:03:07;;;;;;;11.20;7.53;;;;;;;7.44;84.63;98547.31;5033891;28;20159;-64
2023/03/20 03:05:43;;;;;;;10.88;7.70;;;;;;;7.02;84.99;98484.44;5033878;28;20497;-64
2023/03/20 03:08:13;;;;;;;9.52;7.63;;;;;;;7.51;84.87;98540.91;5033792;28;20245;-63
2023/03/20 03:10:51;;;;;;;9.05;7.20;;;;;;;7.18;84.40;98468.06;5033708;28;20193;-63
2023/03/20 03:13:21;;;;;;;11.98;7.15;;;;;;;7.71;84.34;98542.41;5033929;28;20544;-64
2023/03/20 03:15:51;;;;;;;9.32;6.57;;;;;;;7.62;83.63;98527.44;5033637;28;20163;-64
2023/03/20 03:18:21;;;;;;;9.25;6.55;;;;;;;7.76;83.02;98551.50;5033492;28;20181;-63
2023/03/20 03:20:51;;;;;;;7.88;7.10;;;;;;;7.48;82.68;98502.47;5033542;28;20245;-64
2023/03/20 03:23:42;;;;;;;8.82;7.93;;;;;;;6.88;85.11;98441.44;5033435;28;20594;-63
2023/03/20 03:26:13;;;;;;;10.85;7.72;;;;;;;6.98;86.56;98488.91;5050757;28;20210;-64
2023/03/20 03:28:53;;;;;;;11.75;8.48;;;;;;;7.17;86.69;98525.59;5050991;28;20185;-63
2023/03/20 03:31:18;;;;;;;13.00;8.40;;;;;;;6.64;88.98;98488.19;5050786;28;20210;-63
2023/03/20 03:33:49;;;;;;;13.23;9.32;;;;;;;6.64;89.98;98496.72;5050753;28;20687;-63
2023/03/20 03:36:20;;;;;;;14.05;8.85;;;;;;;6.97;89.68;98541.25;5050768;28;20705;-63
2023/03/20 03:38:54;;;;;;;11.30;8.60;;;;;;;6.87;91.00;98546.97;5050755;28;20189;-64
2023/03/20 03:41:56;;;;;;;13.10;9.88;;;;;;;6.80;91.95;98541.31;5050084;28;20221;-64
2023/03/20 03:44:42;;;;;;;13.45;9.63;;;;;;;6.22;92.19;98439.78;5030541;28;20268;-64
2023/03/20 03:47:14;;;;;;;13.45;9.40;;;;;;;6.86;92.02;98538.41;5030697;28;20366;-64
2023/03/20 03:49:46;;;;;;;14.23;10.20;;;;;;;6.71;93.12;98522.94;5030598;28;20185;-64
2023/03/20 03:52:17;;;;;;;13.07;9.57;;;;;;;6.84;92.51;98537.66;5030846;28;20680;-64
2023/03/20 03:54:46;;;;;;;15.05;10.15;;;;;;;6.91;91.33;98536.44;5030397;28;20256;-64
2023/03/20 03:57:15;;;;;;;11.55;8.45;;;;;;;6.70;90.65;98501.53;5030498;28;20183;-64
2023/03/20 03:59:49;;;;;;;10.60;8.07;;;;;;;6.26;91.12;98427.63;5030400;28;20194;-63
2023/03/20 04:02:18;;;;;;;12.43;8.65;;;;;;;6.83;91.05;98530.03;5030422;28;20184;-64
2023/03/20 04:04:46;;;;;;;10.52;8.43;;;;;;;6.50;91.46;98500.91;5030290;28;20194;-64
2023/03/20 04:07:13;;;;;;;12.77;9.70;;;;;;;6.21;93.77;98494.66;5030293;28;20185;-64
2023/03/20 04:09:39;;;;;;;10.88;8.75;;;;;;;6.62;93.58;98537.09;5030435;28;20226;-64
2023/03/20 04:12:05;;;;;;;11.30;8.20;;;;;;;6.53;92.30;98498.19;5030186;28;20280;-64
2023/03/20 04:14:31;;;;;;;13.48;8.40;;;;;;;6.33;91.63;98467.50;5015467;28;20598;-64
2023/03/20 04:16:56;;;;;;;12.02;8.80;;;;;;;6.64;92.13;98524.19;5030240;28;20189;-63
2023/03/20 04:19:21;;;;;;;12.10;8.35;;;;;;;6.40;94.17;98520.28;5030161;28;20197;-64
2023/03/20 04:21:47;;;;;;;12.13;8.98;;;;;;;6.10;96.98;98512.34;5030166;28;20186;-64
2023/03/20 04:24:14;;;;;;;11.55;8.57;;;;;;;5.71;96.64;98442.34;5030156;28;20217;-63
2023/03/20 04:26:39;;;;;;;10.55;8.38;;;;;;;5.91;96.66;98483.34;5030057;28;20186;-64
2023/03/20 04:29:05;;;;;;;8.18;6.40;;;;;;;5.81;96.75;98463.28;5030065;28;20212;-64
2023/03/20 04:31:31;;;;;;;13.32;7.65;;;;;;;5.80;96.12;98466.78;5029920;28;20206;-64
2023/03/20 04:33:57;;;;;;;9.45;7.53;;;;;;;5.78;98.27;98484.78;5030024;28;20186;-64
2023/03/20 04:36:22;;;;;;;9.85;7.35;;;;;;;6.08;98.79;98534.72;5029987;28;20181;-64
2023/03/20 04:38:47;;;;;;;7.95;5.82;;;;;;;6.25;97.01;98536.44;5029933;28;20692;-64
2023/03/20 04:41:13;;;;;;;8.55;6.70;;;;;;;6.08;94.60;98461.94;5029944;28;20178;-64
2023/03/20 04:43:39;;;;;;;7.95;6.72;;;;;;;6.25;93.26;98495.34;5029911;28;20193;-64
2023/03/20 04:46:05;;;;;;;6.75;5.40;;;;;;;6.38;92.08;98517.78;5029839;28;20186;-63
2023/03/20 04:48:30;;;;;;;9.77;7.00;;;;;;;6.34;91.00;98495.69;5029857;28;20186;-64
2023/03/20 04:50:56;;;;;;;11.18;6.68;;;;;;;6.52;91.03;98497.34;5029932;28;20198;-64
2023/03/20 04:53:22;;;;;;;8.85;6.93;;;;;;;6.31;91.16;98448.78;5032351;28;20190;-64
2023/03/20 04:55:48;;;;;;;8.23;7.43;;;;;;;6.78;90.94;98519.16;5036179;28;20281;-64
2023/03/20 04:58:14;;;;;;;12.02;7.40;;;;;;;6.90;90.83;98539.94;5036258;28;20229;-64
2023/03/20 05:00:39;;;;;;;19.05;9.32;;;;;;;6.97;89.56;98530.97;5036261;28;20178;-64
2023/03/20 05:03:05;;;;;;;15.18;9.07;;;;;;;7.20;89.62;98551.19;5036201;28;20217;-64
2023/03/20 05:05:30;;;;;;;17.23;9.15;;;;;;;6.70;89.25;98454.44;5036080;28;20248;-64
2023/03/20 05:07:56;;;;;;;14.93;8.60;;;;;;;7.01;88.90;98498.19;5036074;28;20185;-63
2023/03/20 05:10:22;;;;;;;9.85;7.32;;;;;;;7.22;88.37;98515.09;5035868;28;20336;-64
2023/03/20 05:12:47;;;;;;;12.35;7.68;;;;;;;7.47;88.17;98560.00;5035890;28;20662;-64
2023/03/20 05:15:13;;;;;;;18.50;10.73;;;;;;;7.07;88.83;98497.88;5035885;28;20181;-64
2023/03/20 05:17:38;;;;;;;19.00;9.18;;;;;;;7.29;89.72;98540.38;5035785;28;20661;-64
2023/03/20 05:20:05;;;;;;;21.05;11.65;;;;;;;7.27;89.72;98526.78;5035749;28;20186;-65
2023/03/20 05:22:31;;;;;;;24.92;13.13;;;;;;;6.95;89.37;98471.06;5035711;28;20648;-64
2023/03/20 05:24:56;;;;;;;22.90;13.20;;;;;;;6.99;88.82;98459.69;5035671;28;20179;-64
2023/03/20 05:27:21;;;;;;;18.52;11.20;;;;;;;7.40;88.79;98519.25;5052979;28;20337;-64
2023/03/20 05:29:47;;;;;;;18.42;11.15;;;;;;;7.57;88.28;98534.59;5053328;28;20213;-65
2023/03/20 05:32:12;;;;;;;18.02;11.45;;;;;;;7.45;88.04;98507.78;5053119;28;20194;-64
2023/03/20 05:34:38;;;;;;;20.95;11.30;;;;;;;7.32;87.92;98478.47;5053064;28;20597;-64
2023/03/20 05:37:03;;;;;;;24.08;13.00;;;;;;;7.80;87.89;98542.72;5052981;28;20259;-64
2023/03/20 05:39:29;;;;;;;19.38;12.82;;;;;;;7.99;87.58;98573.44;5052990;28;20193;-64
2023/03/20 05:41:54;;;;;;;30.98;15.10;;;;;;;8.01;87.84;98562.16;5052909;28;20264;-64
2023/03/20 05:44:20;;;;;;;24.15;15.10;;;;;;;8.07;87.28;98550.66;5052843;28;20178;-64
2023/03/20 05:46:45;;;;;;;25.90;13.65;;;;;;;8.05;86.50;98522.38;5052806;28;20185;-64
2023/03/20 05:49:10;;;;;;;19.77;12.43;;;;;;;8.33;85.27;98547.47;5052790;28;20636;-64
2023/03/20 05:51:36;;;;;;;20.58;11.50;;;;;;;7.93;84.60;98468.16;5052677;28;20334;-64
2023/03/20 05:54:01;;;;;;;25.50;13.45;;;;;;;8.49;83.61;98543.06;5052727;28;20174;-64
2023/03/20 05:56:27;;;;;;;20.80;12.27;;;;;;;8.64;82.58;98543.03;5052433;28;20312;-65
2023/03/20 05:58:52;;;;;;;22.50;11.85;;;;;;;8.54;81.80;98505.81;5052593;28;20204;-64
2023/03/20 06:01:20;;;;;;;14.50;9.65;;;;;;;8.84;81.33;98541.84;5072343;28;20666;-65
2023/03/20 06:03:47;;;;;;;15.68;9.13;;;;;;;8.91;80.15;98536.22;5070750;28;20185;-65
2023/03/20 06:06:13;;;;;;;13.55;8.90;;;;;;;8.94;79.79;98520.56;5051982;28;20656;-65
2023/03/20 06:08:39;;;;;;;14.27;9.48;;;;;;;9.09;79.34;98540.28;5052405;28;20177;-64
2023/03/20 06:11:05;;;;;;;11.07;8.45;;;;;;;8.86;78.69;98470.34;5052278;28;20252;-65
2023/03/20 06:13:31;;;;;;;14.80;8.85;;;;;;;9.42;78.14;98553.72;5052285;28;20719;-64
2023/03/20 06:15:56;;;;;;;15.13;9.65;;;;;;;9.48;77.55;98549.91;5052273;28;20236;-65
2023/03/20 06:18:22;;;;;;;19.10;11.27;;;;;;;9.37;76.58;98517.03;5052212;28;20639;-65
2023/03/20 06:20:55;;;;;;;30.00;12.65;;;;;;;9.50;76.22;98514.50;5052202;28;20186;-64
2023/03/20 06:23:20;;;;;;;18.17;10.10;;;;;;;9.70;75.64;98533.81;5052161;28;20629;-64
2023/03/20 06:25:46;;;;;;;14.88;9.32;;;;;;;9.79;75.26;98543.59;5052031;28;20188;-64
2023/03/20 06:28:11;;;;;;;22.60;11.90;;;;;;;9.44;74.92;98476.97;5052067;28;20181;-64
2023/03/20 06:30:37;;;;;;;21.60;13.30;;;;;;;9.99;75.08;98552.66;5051953;28;20709;-64
2023/03/20 06:33:05;;;;;;;26.20;12.98;;;;;;;9.88;75.30;98530.06;5037352;28;20186;-63
2023/03/20 06:35:30;;;;;;;19.02;12.65;;;;;;;10.10;75.82;98552.84;5034332;28;20265;-63
2023/03/20 06:37:57;;;;;;;19.25;12.95;;;;;;;10.05;75.80;98516.91;5045338;28;20199;-64
2023/03/20 06:40:22;;;;;;;18.63;11.40;;;;;;;10.42;75.40;98575.69;5054006;28;20264;-64
2023/03/20 06:42:48;;;;;;;21.90;12.07;;;;;;;9.90;75.31;98478.28;5053895;28;20194;-64
2023/03/20 06:45:13;;;;;;;19.70;11.60;;;;;;;10.33;74.94;98547.00;5053912;28;20181;-64
2023/03/20 06:47:39;;;;;;;17.02;11.15;;;;;;;10.34;75.42;98546.88;5053838;28;20166;-63
2023/03/20 06:50:05;;;;;;;17.15;11.38;;;;;;;10.24;75.52;98513.97;5053757;28;20205;-63
2023/03/20 06:52:30;;;;;;;16.17;11.50;;;;;;;10.36;74.68;98510.59;5053733;28;20603;-63
2023/03/20 06:54:56;;;;;;;17.92;11.13;;;;;;;10.86;73.91;98572.75;5053719;28;20208;-63
2023/03/20 06:57:23;;;;;;;18.83;11.00;;;;;;;10.40;72.63;98489.56;5053816;28;20162;-64
2023/03/20 06:59:48;;;;;;;21.25;9.80;;;;;;;10.60;71.95;98529.66;5053795;28;20228;-64
2023/03/20 07:02:15;;;;;;;24.95;10.88;;;;;;;10.45;71.57;98491.88;5054078;28;20257;-64
2023/03/20 07:04:40;;;;;;;16.50;9.88;;;;;;;10.62;71.76;98533.78;5053860;28;20762;-64
2023/03/20 07:07:06;;;;;;;21.45;10.82;;;;;;;10.61;72.31;98549.41;5054072;28;20264;-64
2023/03/20 07:09:32;;;;;;;19.63;12.07;;;;;;;9.98;75.30;98479.44;5053752;28;20562;-64
2023/03/20 07:11:57;;;;;;;22.42;12.55;;;;;;;9.86;75.89;98476.84;5052525;28;20228;-64
2023/03/20 07:14:22;;;;;;;22.10;12.63;;;;;;;10.15;75.40;98491.31;5053776;28;20193;-64
2023/03/20 07:16:48;;;;;;;15.40;11.02;;;;;;;10.54;74.95;98522.28;5052722;28;20260;-64
2023/03/20 07:19:13;;;;;;;18.42;11.23;;;;;;;10.88;73.93;98553.59;5053590;28;20563;-64
2023/03/20 07:21:39;;;;;;;19.85;11.90;;;;;;;11.12;72.79;98569.22;5053560;28;20705;-64
2023/03/20 07:24:06;;;;;;;16.75;12.43;;;;;;;10.84;72.70;98504.69;5053465;28;20189;-64
2023/03/20 07:26:31;;;;;;;19.85;11.70;;;;;;;11.21;72.54;98546.09;5053376;28;20184;-64
2023/03/20 07:28:57;;;;;;;20.17;11.90;;;;;;;11.38;72.17;98547.53;5053437;28;20173;-64
2023/03/20 07:31:25;;;;;;;20.67;11.65;;;;;;;11.49;71.29;98545.03;5053275;28;20208;-64
2023/03/20 07:33:50;;;;;;;17.35;10.95;;;;;;;11.23;70.46;98483.84;5053259;28;20177;-64
2023/03/20 07:36:16;;;;;;;21.15;11.43;;;;;;;11.70;70.03;98552.16;5053259;28;20220;-64
2023/03/20 07:38:41;;;;;;;21.23;11.95;;;;;;;11.66;69.63;98539.50;5053218;28;20174;-64
2023/03/20 07:41:07;;;;;;;15.45;11.15;;;;;;;11.91;69.00;98553.19;5053087;28;20201;-64
2023/03/20 07:43:32;;;;;;;19.13;11.45;;;;;;;11.55;68.46;98474.63;5052966;28;20236;-64
2023/03/20 07:46:02;;;;;;;19.95;10.90;;;;;;;12.24;67.86;98570.69;5053058;28;20663;-64
2023/03/20 07:48:27;;;;;;;13.32;10.60;;;;;;;12.02;67.13;98518.75;5053275;28;20658;-64
2023/03/20 07:50:52;;;;;;;18.10;10.85;;;;;;;12.29;67.02;98563.41;5052895;28;20284;-64
2023/03/20 07:53:18;;;;;;;15.57;9.95;;;;;;;12.40;66.25;98550.47;5052928;28;20180;-64
2023/03/20 07:55:44;;;;;;;17.77;9.95;;;;;;;12.31;66.04;98520.03;5052869;28;20197;-63
2023/03/20 07:58:11;;;;;;;15.48;9.88;;;;;;;12.19;65.29;98490.63;5052826;28;20182;-63
2023/03/20 08:00:37;;;;;;;19.20;10.30;;;;;;;12.68;64.78;98552.69;5052779;28;20174;-64
2023/03/20 08:03:03;;;;;;;15.52;9.27;;;;;;;12.38;63.58;98464.16;5052729;28;20530;-63
2023/03/20 08:05:28;;;;;;;18.25;9.20;;;;;;;12.88;62.92;98552.00;5052981;28;20177;-63
2023/03/20 08:07:54;;;;;;;13.93;9.30;;;;;;;12.72;62.37;98515.19;5052609;28;20182;-64
2023/03/20 08:10:19;;;;;;;13.95;9.20;;;;;;;13.06;61.93;98550.66;5052491;28;20283;-63
2023/03/20 08:12:45;;;;;;;13.85;9.50;;;;;;;12.91;61.15;98516.28;5052220;28;20223;-64
2023/03/20 08:15:10;;;;;;;12.85;9.02;;;;;;;12.93;60.69;98508.34;5052510;28;20208;-63
2023/03/20 08:17:36;;;;;;;13.10;8.10;;;;;;;13.22;60.39;98551.13;5052741;28;20178;-63
2023/03/20 08:20:02;;;;;;;10.50;8.30;;;;;;;13.09;60.24;98529.63;5052462;28;20205;-63
2023/03/20 08:22:27;;;;;;;14.07;8.48;;;;;;;13.24;60.00;98546.66;5052421;28;20269;-63
2023/03/20 08:24:53;;;;;;;10.35;8.23;;;;;;;13.12;59.41;98519.84;5052307;28;20227;-64
2023/03/20 08:27:18;;;;;;;13.20;8.07;;;;;;;13.33;59.39;98540.75;5052198;28;20759;-64
2023/03/20 08:29:44;;;;;;;12.43;9.02;;;;;;;12.87;59.63;98468.09;5052014;28;20169;-63
2023/03/20 08:32:09;;;;;;;12.65;8.80;;;;;;;13.15;59.92;98508.38;5052240;28;20300;-63
2023/03/20 08:34:34;;;;;;;14.25;8.35;;;;;;;13.27;59.35;98507.44;5052265;28;20539;-64
2023/03/20 08:37:03;;;;;;;13.68;8.02;;;;;;;13.73;58.57;98557.47;5049695;28;20676;-64
2023/03/20 08:39:28;;;;;;;12.52;8.13;;;;;;;13.50;58.10;98498.66;5049805;28;20177;-64
2023/03/20 08:41:54;;;;;;;10.90;7.53;;;;;;;13.87;57.86;98542.44;5049754;28;20205;-63
2023/03/20 08:44:19;;;;;;;11.25;7.53;;;;;;;13.86;57.25;98535.59;5049745;28;20255;-64
2023/03/20 08:46:45;;;;;;;13.80;8.25;;;;;;;14.02;57.59;98558.59;5049737;28;20277;-64
2023/03/20 08:49:11;;;;;;;8.88;7.50;;;;;;;14.03;57.89;98536.81;5049727;28;20181;-63
2023/03/20 08:51:36;;;;;;;8.30;7.50;;;;;;;14.18;56.61;98549.44;5049534;28;20318;-63
2023/03/20 08:54:02;;;;;;;13.38;8.85;;;;;;;13.92;56.89;98516.06;5049626;28;20187;-63
2023/03/20 08:56:27;;;;;;;12.43;9.23;;;;;;;13.87;56.93;98492.19;5049505;28;20292;-64
2023/03/20 08:58:54;;;;;;;9.50;7.13;;;;;;;14.28;56.67;98555.59;5049605;28;20316;-64
2023/03/20 09:01:20;;;;;;;9.32;7.88;;;;;;;14.10;56.21;98509.38;5047949;28;20185;-65
2023/03/20 09:03:46;;;;;;;44.17;10.30;;;;;;;14.11;56.14;98506.63;5048794;28;20273;-60
2023/03/20 09:06:11;;;;;;;18.95;7.63;;;;;;;14.31;56.31;98534.53;5048883;28;20185;-60
2023/03/20 09:08:39;;;;;;;11.15;7.43;;;;;;;14.48;55.77;98556.56;5051070;28;20186;-60
2023/03/20 09:11:06;;;;;;;12.32;9.57;;;;;;;14.16;56.21;98506.25;5051832;28;20694;-60
2023/03/20 09:13:31;;;;;;;16.55;8.45;;;;;;;13.87;55.62;98467.00;5051832;28;20177;-60
2023/03/20 09:15:57;;;;;;;8.35;6.75;;;;;;;13.94;56.23;98481.16;5048289;28;20190;-60
2023/03/20 09:18:23;;;;;;;9.93;7.00;;;;;;;14.32;55.45;98543.97;5049060;28;20589;-60
2023/03/20 09:20:51;;;;;;;11.77;6.63;;;;;;;14.38;55.59;98534.81;5049341;28;20229;-60
2023/03/20 09:23:17;;;;;;;9.60;7.07;;;;;;;14.35;56.12;98529.88;5049176;28;20186;-60
2023/03/20 09:25:43;;;;;;;12.50;6.95;;;;;;;14.12;55.78;98482.25;5049441;28;20269;-60
2023/03/20 09:28:09;;;;;;;9.75;7.15;;;;;;;14.43;55.99;98524.88;5048651;28;20676;-60
2023/03/20 09:30:34;;;;;;;11.65;8.93;;;;;;;14.08;56.35;98485.25;5048358;28;20212;-60
2023/03/20 09:33:00;;;;;;;12.55;8.40;;;;;;;14.35;56.71;98520.28;5049231;28;20276;-61
2023/03/20 09:35:30;;;;;;;12.63;7.28;;;;;;;14.13;56.77;98472.69;5049204;28;20198;-61
2023/03/20 09:37:55;;;;;;;12.57;7.75;;;;;;;14.09;56.63;98440.91;5049324;28;20166;-61
2023/03/20 09:40:24;;;;;;;10.45;7.32;;;;;;;14.75;56.13;98525.66;5050867;28;20726;-60
2023/03/20 09:42:57;;;;;;;9.70;7.43;;;;;;;14.67;55.33;98473.34;5052778;28;20189;-60
2023/03/20 09:45:50;;;;;;;14.35;7.18;;;;;;;15.06;54.91;98509.06;5052770;28;20600;-61
2023/03/20 09:48:30;;;;;;;12.07;8.02;;;;;;;15.21;55.26;98515.59;5055200;28;20158;-61
2023/03/20 09:51:06;;;;;;;14.52;8.18;;;;;;;15.23;55.50;98505.88;5072185;28;20296;-61
2023/03/20 09:53:43;;;;;;;10.48;8.27;;;;;;;14.96;55.53;98443.91;5032101;28;20285;-61
2023/03/20 09:56:21;;;;;;;10.50;8.07;;;;;;;15.09;55.45;98447.09;5032640;28;20268;-61
2023/03/20 09:58:53;;;;;;;13.68;8.02;;;;;;;15.36;54.77;98462.16;5032830;28;20182;-61
2023/03/20 10:01:21;;;;;;;16.20;8.15;;;;;;;15.49;54.48;98465.34;5032266;28;20720;-61
2023/03/20 10:03:54;;;;;;;12.27;8.02;;;;;;;15.32;54.03;98419.03;5032588;28;20282;-61
2023/03/20 10:06:20;;;;;;;11.27;7.50;;;;;;;15.71;53.49;98457.28;5032664;28;20268;-61
2023/03/20 10:08:45;;;;;;;14.82;9.18;;;;;;;16.00;53.49;98484.22;5032592;28;20187;-60
2023/03/20 10:11:50;;;;;;;12.70;8.43;;;;;;;16.14;53.32;98475.97;5032355;28;20222;-60
2023/03/20 10:14:57;;;;;;;37.03;20.25;;;;;;;16.33;53.53;98486.44;5032457;28;20186;-60
2023/03/20 10:17:32;;;;;;;38.55;20.65;;;;;;;16.43;53.36;98488.09;4992879;28;20291;-60
2023/03/20 10:20:10;;;;;;;27.63;14.88;;;;;;;16.58;53.10;98472.81;4993029;28;20183;-61
2023/03/20 10:22:41;;;;;;;14.40;8.95;;;;;;;16.70;52.70;98469.06;4993026;28;20188;-60
2023/03/20 10:25:13;;;;;;;14.95;8.40;;;;;;;16.85;52.58;98468.47;5007777;28;20541;-60
2023/03/20 10:27:46;;;;;;;9.05;7.57;;;;;;;16.78;51.87;98430.81;5011537;28;20194;-60
2023/03/20 10:30:25;;;;;;;16.98;9.98;;;;;;;17.11;51.60;98468.66;5012404;28;20175;-61
2023/03/20 10:33:15;;;;;;;16.10;7.60;;;;;;;17.26;51.44;98456.75;5012397;28;20241;-61
2023/03/20 10:36:04;;;;;;;11.40;7.35;;;;;;;17.42;51.03;98462.19;5012451;28;20176;-61
2023/03/20 10:38:30;;;;;;;9.15;6.75;;;;;;;17.50;50.98;98455.25;5011032;28;20179;-61
2023/03/20 10:40:57;;;;;;;13.95;7.07;;;;;;;17.14;50.32;98376.84;5011237;28;20194;-61
2023/03/20 10:43:28;;;;;;;10.85;7.15;;;;;;;17.20;50.12;98389.34;5012484;28;20270;-61
2023/03/20 10:46:03;;;;;;;11.55;6.68;;;;;;;17.64;50.00;98446.09;5032101;28;20587;-61
2023/03/20 10:48:39;;;;;;;21.10;11.05;;;;;;;17.55;49.75;98433.91;5031944;28;20182;-61
2023/03/20 10:51:13;;;;;;;47.42;19.92;;;;;;;17.61;49.55;98401.91;5031875;28;20300;-61
2023/03/20 10:53:46;;;;;;;31.88;14.75;;;;;;;17.98;49.41;98429.59;5047410;28;20196;-61
2023/03/20 10:56:16;;;;;;;13.60;6.65;;;;;;;17.70;48.51;98357.34;5051077;28;20254;-61
2023/03/20 10:58:46;;;;;;;23.75;12.60;;;;;;;18.27;48.40;98426.69;5051653;28;20687;-61
2023/03/20 11:01:11;;;;;;;26.10;12.98;;;;;;;18.36;48.03;98413.53;5051480;28;20192;-61
2023/03/20 11:03:38;;;;;;;9.95;6.75;;;;;;;18.07;47.98;98338.81;5051530;28;20180;-61
2023/03/20 11:06:12;;;;;;;9.57;6.05;;;;;;;18.62;47.98;98409.13;5051516;28;20240;-61
2023/03/20 11:08:40;;;;;;;12.00;8.07;;;;;;;18.51;47.10;98358.75;5051077;28;20191;-61
2023/03/20 11:11:06;;;;;;;8.70;6.25;;;;;;;18.87;46.36;98391.72;5050620;28;20201;-61
2023/03/20 11:13:37;;;;;;;7.22;5.32;;;;;;;18.75;46.19;98325.63;5051335;28;20210;-61
2023/03/20 11:16:23;;;;;;;6.70;5.20;;;;;;;19.41;45.57;98391.28;5051538;28;20566;-61
2023/03/20 11:18:51;;;;;;;6.97;5.28;;;;;;;19.42;45.82;98361.44;5053712;28;20177;-61
2023/03/20 11:21:28;;;;;;;6.93;5.57;;;;;;;19.60;45.45;98375.25;5053612;28;20647;-60
2023/03/20 11:23:54;;;;;;;7.60;6.13;;;;;;;19.48;45.73;98358.16;5053517;28;20247;-60
2023/03/20 11:26:40;;;;;;;8.98;5.68;;;;;;;19.60;45.27;98370.84;5053520;28;20215;-61
2023/03/20 11:29:13;;;;;;;7.35;5.35;;;;;;;19.30;45.36;98305.00;5053492;28;20161;-60
2023/03/20 11:31:40;;;;;;;7.47;6.13;;;;;;;19.78;44.57;98354.91;5053260;28;20197;-61
2023/03/20 11:34:05;;;;;;;6.32;5.10;;;;;;;19.95;44.42;98364.44;5053316;28;20192;-60
2023/03/20 11:36:33;;;;;;;7.25;4.95;;;;;;;19.72;44.10;98285.50;5053559;28;20177;-60
2023/03/20 11:39:14;;;;;;;5.30;4.80;;;;;;;20.10;42.83;98307.66;5053189;28;20181;-61
2023/03/20 11:41:50;;;;;;;4.65;4.25;;;;;;;20.36;42.50;98316.13;5050808;28;20618;-61
2023/03/20 11:44:32;;;;;;;8.75;4.70;;;;;;;20.54;42.15;98332.50;5050787;28;20181;-61